• Join FlightAware (Why Join?)
  • Login
  • US Flag 
07:15AM EDT


 

Airport Tracker/Info


-or-


 

Live Flight TrackerFlight Track Log ✈ EJA898 ✈ 15-Jul-2013 ✈ KBED - KAPF

Flight Track Log - Related Links

Times and Time Zones

All times are in EDT time to prevent confusion due to time zone crossing. See the EJA898 flight status page for this flight to view local times or setup timezone preferences in your user account.

Time Position Orientation Groundspeed Altitude Reporting Facility
EDT Latitude Longitude Course Direction KTS MPH feet Rate Location/Type
08:29AM 42.4667 -71.3167 237° Southwest 233 268 1,300  Level KA90
08:31AM 42.4167 -71.4192 237° Southwest 215 247 4,300 2,040 Climbing Boston Center
08:32AM 42.3944 -71.5122 252° West 244 281 6,600 2,400 Climbing Boston Center
08:33AM 42.3767 -71.6139 257° West 275 316 9,100 2,700 Climbing Boston Center
08:34AM 42.3606 -71.7181 258° West 281 323 12,000 2,280 Climbing Boston Center
08:35AM 42.3339 -71.8053 248° West 281 323 13,700 1,500 Climbing Boston Center
08:36AM 42.2844 -71.9125 238° Southwest 326 375 15,100 1,500 Climbing Boston Center
08:37AM 42.2267 -72.0419 239° Southwest 363 418 16,800 1,500 Climbing Boston Center
08:38AM 42.1792 -72.1544 240° Southwest 376 433 18,100 1,500 Climbing Boston Center
08:39AM 42.1211 -72.2861 239° Southwest 382 440 19,900 1,740 Climbing Boston Center
08:40AM 42.0647 -72.4122 239° Southwest 382 440 21,600 1,500 Climbing Boston Center
08:41AM 42.0106 -72.5350 239° Southwest 382 440 23,000 1,140 Climbing Boston Center
08:42AM 41.9542 -72.6578 238° Southwest 382 440 23,900 900 Climbing Boston Center
08:43AM 41.8789 -72.7747 229° Southwest 397 457 24,900 1,020 Climbing Boston Center
08:44AM 41.7931 -72.8911 225° Southwest 420 483 26,000 900 Climbing Boston Center
08:45AM 41.7281 -72.9797 226° Southwest 425 489 26,800 960 Climbing Boston Center
08:46AM 41.6294 -73.1178 226° Southwest 425 489 28,000 1,080 Climbing Boston Center
08:47AM 41.5431 -73.2306 224° Southwest 430 495 29,000 900 Climbing Boston Center
08:48AM 41.4631 -73.3403 226° Southwest 430 495 29,900 960 Climbing Boston Center
08:49AM 41.3767 -73.4553 225° Southwest 430 495 31,000 1,020 Climbing Boston Center
08:50AM 41.2922 -73.5700 226° Southwest 435 501 32,000 960 Climbing Boston Center
08:52AM 41.1083 -73.8775 232° Southwest 448 516 34,300 840 Climbing New York Center
08:53AM 41.0342 -74.0033 232° Southwest 448 516 35,000 540 Climbing New York Center
08:54AM 40.9553 -74.1342 231° Southwest 448 516 35,500 540 Climbing New York Center
08:55AM 40.8747 -74.2619 230° Southwest 454 522 36,100 540 Climbing New York Center
08:56AM 40.7978 -74.3922 232° Southwest 459 528 36,600 480 Climbing New York Center
08:57AM 40.7167 -74.5247 231° Southwest 459 528 37,100 480 Climbing New York Center
08:58AM 40.6375 -74.6517 231° Southwest 459 528 37,600 480 Climbing New York Center
08:59AM 40.5581 -74.7811 231° Southwest 459 528 38,100 480 Climbing New York Center
09:00AM 40.4706 -74.9042 227° Southwest 459 528 38,600 480 Climbing New York Center
09:01AM 40.3869 -75.0244 228° Southwest 459 528 39,100 480 Climbing New York Center
09:02AM 40.3033 -75.1444 228° Southwest 459 528 39,600 420 Climbing New York Center
09:03AM 40.2242 -75.2536 226° Southwest 454 522 40,000 180 Climbing New York Center
09:04AM 40.1386 -75.3703 226° Southwest 454 522 40,000  Level New York Center
09:05AM 40.0522 -75.4947 228° Southwest 454 522 40,000  Level New York Center
09:06AM 39.9642 -75.6136 226° Southwest 459 528 40,000 -60 Level New York Center
09:07AM 39.8817 -75.7375 229° Southwest 459 528 39,900  Descending New York Center
09:08AM 39.7989 -75.8694 231° Southwest 459 528 40,000  Climbing New York Center
09:09AM 39.7206 -75.9961 231° Southwest 464 534 40,000  Level New York Center
09:11AM 39.5514 -76.2564 230° Southwest 466 536 40,000  Level Washington Center
09:12AM 39.4694 -76.3792 229° Southwest 466 536 40,000  Level Washington Center
09:13AM 39.3892 -76.5072 231° Southwest 461 531 40,000  Level Washington Center
09:14AM 39.3069 -76.6297 229° Southwest 461 531 40,000  Level Washington Center
09:15AM 39.2267 -76.7569 231° Southwest 456 525 40,000  Level Washington Center
09:16AM 39.1461 -76.8817 230° Southwest 456 525 40,000  Level Washington Center
09:17AM 39.0656 -77.0058 230° Southwest 462 532 40,000  Level Washington Center
09:18AM 38.9747 -77.1136 223° Southwest 455 524 40,000  Level Washington Center
09:19AM 38.8775 -77.2181 220° Southwest 450 518 40,000  Level Washington Center
09:20AM 38.7822 -77.3200 220° Southwest 450 518 40,000  Level Washington Center
09:21AM 38.6847 -77.4267 221° Southwest 456 525 40,000  Level Washington Center
09:22AM 38.5892 -77.5306 220° Southwest 461 531 40,000  Level Washington Center
09:23AM 38.4936 -77.6342 220° Southwest 461 531 40,000  Level Washington Center
09:24AM 38.3981 -77.7403 221° Southwest 461 531 40,000  Level Washington Center
09:25AM 38.3022 -77.8433 220° Southwest 461 531 40,000  Level Washington Center
09:26AM 38.2064 -77.9461 220° Southwest 461 531 40,000  Level Washington Center
09:27AM 38.1106 -78.0486 220° Southwest 461 531 40,000  Level Washington Center
09:28AM 38.0081 -78.1586 220° Southwest 461 531 40,000  Level Washington Center
09:29AM 37.9100 -78.2553 218° Southwest 455 524 40,000  Level Washington Center
09:30AM 37.8078 -78.3517 217° Southwest 455 524 40,000  Level Washington Center
09:31AM 37.7075 -78.4478 217° Southwest 455 524 40,000  Level Washington Center
09:32AM 37.6158 -78.5333 216° Southwest 460 529 40,000  Level Washington Center
09:33AM 37.5156 -78.6264 216° Southwest 460 529 40,000  Level Washington Center
09:34AM 37.4108 -78.7242 217° Southwest 465 535 40,000  Level Washington Center
09:35AM 37.3058 -78.8217 216° Southwest 471 542 40,000  Level Washington Center
09:36AM 37.2031 -78.9164 216° Southwest 466 536 40,000  Level Washington Center
09:37AM 37.0875 -79.0208 216° Southwest 471 542 40,000  Level Washington Center
09:38AM 36.9847 -79.1178 217° Southwest 466 536 40,000  Level Washington Center
09:39AM 36.8817 -79.2142 217° Southwest 466 536 40,000  Level Washington Center
09:40AM 36.7764 -79.3106 216° Southwest 466 536 40,000  Level Washington Center
09:41AM 36.6819 -79.3967 216° Southwest 466 536 40,000  Level Washington Center
09:43AM 36.4739 -79.5825 216° Southwest 493 567 40,000  Level Atlanta Center
09:44AM 36.3689 -79.6786 216° Southwest 488 562 40,000  Level Atlanta Center
09:45AM 36.2636 -79.7744 216° Southwest 483 556 40,000  Level Atlanta Center
09:46AM 36.1483 -79.8783 216° Southwest 483 556 40,000  Level Atlanta Center
09:47AM 36.0431 -79.9711 215° Southwest 478 550 40,000  Level Atlanta Center
09:48AM 35.9264 -80.0358 204° Southwest 473 544 40,000  Level Atlanta Center
09:49AM 35.8072 -80.0931 201° Southwest 465 535 40,000  Level Atlanta Center
09:50AM 35.7006 -80.1492 203° Southwest 465 535 40,000  Level Atlanta Center
09:51AM 35.5814 -80.2086 202° Southwest 465 535 40,000  Level Atlanta Center
09:52AM 35.4519 -80.2731 202° Southwest 465 535 40,000  Level Atlanta Center
09:53AM 35.3347 -80.3294 201° Southwest 465 535 40,000  Level Atlanta Center
09:54AM 35.2175 -80.3906 203° Southwest 465 535 40,000  Level Atlanta Center
09:56AM 35.0108 -80.4900 202° Southwest 466 536 40,000  Level Jacksonville Center
09:57AM 34.8911 -80.5489 202° Southwest 466 536 40,000  Level Jacksonville Center
09:58AM 34.7942 -80.6047 205° Southwest 456 525 40,000  Level Jacksonville Center
09:59AM 34.6742 -80.6608 201° Southwest 456 525 40,000  Level Jacksonville Center
10:00AM 34.5375 -80.7225 200° South 463 533 40,000  Level Jacksonville Center
10:01AM 34.4197 -80.7833 203° Southwest 463 533 40,000  Level Jacksonville Center
10:02AM 34.2997 -80.8414 202° Southwest 469 540 40,000  Level Jacksonville Center
10:03AM 34.2003 -80.8942 204° Southwest 463 533 40,000  Level Jacksonville Center
10:04AM 34.0822 -80.9494 201° Southwest 457 526 40,000  Level Jacksonville Center
10:05AM 33.9642 -81.0072 202° Southwest 457 526 40,000  Level Jacksonville Center
10:06AM 33.8461 -81.0572 199° South 451 519 40,000  Level Jacksonville Center
10:07AM 33.7322 -81.1219 205° Southwest 451 519 40,000  Level Jacksonville Center
10:08AM 33.6119 -81.1792 202° Southwest 456 525 40,000  Level Jacksonville Center
10:09AM 33.4978 -81.2364 203° Southwest 456 525 40,000  Level Jacksonville Center
10:10AM 33.3797 -81.2931 202° Southwest 456 525 40,000  Level Jacksonville Center
10:11AM 33.2614 -81.3500 202° Southwest 456 525 40,000  Level Jacksonville Center
10:12AM 33.1308 -81.4167 203° Southwest 456 525 40,000  Level Jacksonville Center
10:13AM 33.0125 -81.4731 202° Southwest 456 525 40,000  Level Jacksonville Center
10:14AM 32.8919 -81.5294 201° Southwest 456 525 40,000  Level Jacksonville Center
10:15AM 32.7756 -81.5856 202° Southwest 456 525 40,000  Level Jacksonville Center
10:16AM 32.6594 -81.6439 203° Southwest 456 525 40,000  Level Jacksonville Center
10:17AM 32.5514 -81.6947 202° Southwest 456 525 40,000  Level Jacksonville Center
10:18AM 32.4203 -81.7606 203° Southwest 461 531 40,000  Level Jacksonville Center
10:19AM 32.2997 -81.8161 201° Southwest 466 536 40,000  Level Jacksonville Center
10:20AM 32.1917 -81.8689 202° Southwest 466 536 40,000  Level Jacksonville Center
10:21AM 32.0586 -81.9292 201° Southwest 473 544 40,000  Level Jacksonville Center
10:22AM 31.9481 -81.9669 196° South 473 544 40,000  Level Jacksonville Center
10:23AM 31.8083 -81.9831 186° South 467 537 40,000  Level Jacksonville Center
10:24AM 31.6789 -81.9942 184° South 460 529 40,000  Level Jacksonville Center
10:25AM 31.5642 -82.0075 186° South 461 531 40,000  Level Jacksonville Center
10:26AM 31.4222 -82.0211 185° South 466 536 40,000 -60 Level Jacksonville Center
10:27AM 31.2931 -82.0489 190° South 466 536 39,900  Descending Jacksonville Center
10:28AM 31.1681 -82.0817 193° South 466 536 40,000  Climbing Jacksonville Center
10:29AM 31.0408 -82.1069 190° South 466 536 40,000  Level Jacksonville Center
10:30AM 30.9092 -82.1056 179° South 466 536 40,000  Level Jacksonville Center
10:31AM 30.7817 -82.0897 174° South 461 531 40,000 -60 Level Jacksonville Center
10:32AM 30.6503 -82.0811 177° South 466 536 39,900  Descending Jacksonville Center
10:33AM 30.5186 -82.0606 172° South 466 536 40,000  Climbing Jacksonville Center
10:34AM 30.3869 -82.0497 176° South 471 542 40,000  Level Jacksonville Center
10:35AM 30.2594 -82.0411 177° South 475 547 40,000  Level Jacksonville Center
10:36AM 30.1278 -82.0281 175° South 484 557 40,000  Level Jacksonville Center
10:37AM 30.0089 -82.0267 179° South 476 548 40,000  Level Jacksonville Center
10:38AM 29.8814 -82.0158 176° South 476 548 40,000  Level Jacksonville Center
10:39AM 29.7539 -82.0050 176° South 471 542 40,000 -180 Level Jacksonville Center
10:40AM 29.6244 -81.9942 176° South 466 536 39,700 -1,440 Descending Jacksonville Center
10:41AM 29.4950 -81.9858 177° South 466 536 37,200 -2,340 Descending Jacksonville Center
10:42AM 29.3717 -81.9750 176° South 454 522 35,100 -1,260 Descending Jacksonville Center
10:43AM 29.2483 -81.9478 169° South 454 522 34,700 -1,500 Descending Jacksonville Center
10:45AM 28.9986 -81.8961 170° South 479 551 30,800 -2,100 Descending Miami Center
10:46AM 28.8681 -81.8711 170° South 485 558 28,700 -1,920 Descending Miami Center
10:47AM 28.7397 -81.8486 171° South 480 552 27,000 -900 Descending Miami Center
10:48AM 28.6111 -81.8217 170° South 475 547 27,000  Level Miami Center
10:49AM 28.4853 -81.7878 167° South 475 547 27,000  Level Miami Center
10:50AM 28.3592 -81.7539 167° South 469 540 27,000 -780 Level Miami Center
10:51AM 28.2289 -81.7175 166° South 469 540 25,500 -1,500 Descending Miami Center
10:52AM 28.1089 -81.6867 167° South 464 534 24,100 -1,200 Descending Miami Center
10:53AM 27.9858 -81.6861 180° South 439 505 23,100 -1,320 Descending Miami Center
10:54AM 27.8617 -81.7136 191° South 446 513 21,500 -1,560 Descending Miami Center
10:55AM 27.7478 -81.6878 169° South 424 488 20,000 -1,500 Descending Miami Center
10:56AM 27.6444 -81.6575 165° South 424 488 18,500 -1,440 Descending Miami Center
10:57AM 27.5331 -81.6247 165° South 424 488 17,200 -1,440 Descending Miami Center
10:58AM 27.4233 -81.5969 167° South 424 488 15,700 -1,500 Descending Miami Center
10:59AM 27.3156 -81.5667 166° South 407 468 14,200 -1,500 Descending Miami Center
11:00AM 27.2122 -81.5367 166° South 402 463 12,800 -1,440 Descending Miami Center
11:01AM 27.1089 -81.5092 167° South 391 450 11,400 -1,380 Descending Miami Center
11:02AM 26.9972 -81.4769 166° South 385 443 10,100 -1,020 Descending Miami Center
11:03AM 26.9169 -81.4389 157° South 341 392 9,400 -600 Descending Miami Center
11:04AM 26.8469 -81.4033 156° South 289 333 9,000 -240 Descending Miami Center
11:05AM 26.7681 -81.3958 175° South 283 326 9,000 -180 Level Miami Center
11:06AM 26.6900 -81.4136 192° South 283 326 8,700 -540 Descending Miami Center
11:07AM 26.6147 -81.4247 188° South 283 326 8,000 -360 Descending Miami Center
11:08AM 26.5503 -81.4756 215° Southwest 276 318 8,000  Level Miami Center
11:09AM 26.4861 -81.5286 217° Southwest 291 335 8,000  Level Miami Center
11:11AM 26.2828 -81.5092 233° Southwest  Level FlightAware Approximate
11:18AM 26.1500 -81.7667 246° West  Level FlightAware Approximate
11:19AM 26.1524 -81.7756 246° West  Level Estimated
11:20AM 26.1524 -81.7756 246° West  Level Estimated
11:21AM 26.1524 -81.7756 246° West  Level Estimated
11:22AM 26.1524 -81.7756 246° West  Level Estimated
11:23AM 26.1524 -81.7756 246° West  Level Estimated
11:24AM 26.1524 -81.7756 246° West  Level Estimated
11:25AM 26.1524 -81.7756 246° West  Level Estimated
11:26AM 26.1524 -81.7756 246° West  Level Estimated
11:27AM 26.1524 -81.7756 246° West  Level Estimated